logo
Search for airport 
image banner adimage banner adimage banner ad
image banner ad

HKBM - Bamburi

Located in Mombasa, Kenya

ICAO - , IATA - BMQ

Data provided by Airmate  

General information

Coordinates: S3°59'0" E39°43'52"
Elevation is 78 feet MSL.
Magnetic variation is -1° East
View others Airports in Coast Province

Operational data

Special qualification required
Current time UTC:
Current local time:
Weather at : HKMO - Mombasa Moi Intl ( 15 km )
METAR: HKMO 180630Z 19010KT 9999 FEW023 SCT080 29/23 Q1014 NOSIG
TAF: TAF HKMO 180500Z 1806/1912 21010KT 9999 FEW020 SCT080 TEMPO 1809/1812 -SHRA FEW023CB SCT024 BKN080 BECMG 1815/1818 21005KT NSW FEW022 TEMPO 1900/1903 -RA SCT018 BKN080
View NOTAMs / SUP AIP / TFR affecting this airport [VIEW]
Communications frequencies: [VIEW]

Runways:

RWY identifierQFULength (ft)Width (ft)SurfaceLDA (ft)
18184°279639ASPH
36279639ASPH

Airport contact information

Address: Mombasa Kenya

Satellite view of HKBM